sensor_id;sensor_type;location;lat;lon;timestamp;P1;durP1;ratioP1;P2;durP2;ratioP2
16524;SDS011;8375;33.594;-117.718;2023-04-03T00:00:06;8.37;;;2.40;;
16524;SDS011;8375;33.594;-117.718;2023-04-03T00:02:37;7.83;;;2.40;;
16524;SDS011;8375;33.594;-117.718;2023-04-03T00:05:06;8.77;;;2.20;;
16524;SDS011;8375;33.594;-117.718;2023-04-03T00:07:36;14.70;;;3.13;;
16524;SDS011;8375;33.594;-117.718;2023-04-03T00:10:05;12.73;;;2.90;;
16524;SDS011;8375;33.594;-117.718;2023-04-03T00:12:34;8.33;;;2.20;;
16524;SDS011;8375;33.594;-117.718;2023-04-03T00:15:03;10.57;;;2.43;;
16524;SDS011;8375;33.594;-117.718;2023-04-03T00:17:33;10.03;;;2.50;;
16524;SDS011;8375;33.594;-117.718;2023-04-03T00:20:04;8.53;;;2.47;;
16524;SDS011;8375;33.594;-117.718;2023-04-03T00:22:34;9.57;;;2.30;;
16524;SDS011;8375;33.594;-117.718;2023-04-03T00:25:02;11.73;;;2.60;;
16524;SDS011;8375;33.594;-117.718;2023-04-03T00:27:32;8.60;;;2.50;;
16524;SDS011;8375;33.594;-117.718;2023-04-03T00:30:00;10.07;;;2.20;;
16524;SDS011;8375;33.594;-117.718;2023-04-03T00:32:29;10.53;;;2.70;;
16524;SDS011;8375;33.594;-117.718;2023-04-03T00:34:58;11.43;;;2.80;;
16524;SDS011;8375;33.594;-117.718;2023-04-03T00:37:28;11.67;;;2.83;;
16524;SDS011;8375;33.594;-117.718;2023-04-03T00:39:57;10.13;;;2.67;;
16524;SDS011;8375;33.594;-117.718;2023-04-03T00:42:25;7.37;;;2.33;;
16524;SDS011;8375;33.594;-117.718;2023-04-03T00:48:02;7.00;;;2.10;;
16524;SDS011;8375;33.594;-117.718;2023-04-03T00:50:34;8.47;;;2.23;;
16524;SDS011;8375;33.594;-117.718;2023-04-03T00:53:07;13.97;;;2.63;;
16524;SDS011;8375;33.594;-117.718;2023-04-03T00:55:39;7.70;;;2.43;;
16524;SDS011;8375;33.594;-117.718;2023-04-03T00:58:09;10.17;;;2.67;;
16524;SDS011;8375;33.594;-117.718;2023-04-03T01:00:40;9.30;;;2.47;;
16524;SDS011;8375;33.594;-117.718;2023-04-03T01:03:14;8.60;;;2.93;;
16524;SDS011;8375;33.594;-117.718;2023-04-03T01:05:43;8.77;;;2.60;;
16524;SDS011;8375;33.594;-117.718;2023-04-03T01:08:13;8.07;;;2.60;;
16524;SDS011;8375;33.594;-117.718;2023-04-03T01:10:42;7.17;;;2.60;;
16524;SDS011;8375;33.594;-117.718;2023-04-03T01:13:19;10.07;;;2.77;;
16524;SDS011;8375;33.594;-117.718;2023-04-03T01:15:50;7.47;;;2.43;;
16524;SDS011;8375;33.594;-117.718;2023-04-03T01:18:19;9.73;;;2.90;;
16524;SDS011;8375;33.594;-117.718;2023-04-03T01:26:55;7.70;;;2.60;;
16524;SDS011;8375;33.594;-117.718;2023-04-03T01:29:24;11.07;;;2.67;;
16524;SDS011;8375;33.594;-117.718;2023-04-03T01:31:55;7.90;;;2.73;;
16524;SDS011;8375;33.594;-117.718;2023-04-03T01:34:25;8.83;;;3.33;;
16524;SDS011;8375;33.594;-117.718;2023-04-03T01:36:55;5.53;;;3.00;;
16524;SDS011;8375;33.594;-117.718;2023-04-03T01:39:24;8.37;;;3.07;;
16524;SDS011;8375;33.594;-117.718;2023-04-03T01:41:52;11.57;;;3.93;;
16524;SDS011;8375;33.594;-117.718;2023-04-03T01:44:21;11.43;;;3.67;;
16524;SDS011;8375;33.594;-117.718;2023-04-03T01:46:50;13.87;;;4.23;;
16524;SDS011;8375;33.594;-117.718;2023-04-03T01:49:20;14.93;;;4.13;;
16524;SDS011;8375;33.594;-117.718;2023-04-03T01:51:48;10.10;;;3.87;;
16524;SDS011;8375;33.594;-117.718;2023-04-03T01:54:17;8.67;;;3.03;;
16524;SDS011;8375;33.594;-117.718;2023-04-03T01:56:46;8.37;;;3.77;;
16524;SDS011;8375;33.594;-117.718;2023-04-03T01:59:14;9.27;;;2.80;;
16524;SDS011;8375;33.594;-117.718;2023-04-03T02:01:44;11.60;;;3.53;;
16524;SDS011;8375;33.594;-117.718;2023-04-03T02:04:13;8.67;;;2.80;;
16524;SDS011;8375;33.594;-117.718;2023-04-03T02:06:44;11.07;;;2.80;;
16524;SDS011;8375;33.594;-117.718;2023-04-03T02:09:13;7.67;;;2.63;;
16524;SDS011;8375;33.594;-117.718;2023-04-03T02:11:41;9.47;;;2.60;;
16524;SDS011;8375;33.594;-117.718;2023-04-03T02:14:10;10.57;;;2.50;;
16524;SDS011;8375;33.594;-117.718;2023-04-03T02:16:39;7.07;;;2.60;;
16524;SDS011;8375;33.594;-117.718;2023-04-03T02:19:07;7.33;;;2.33;;
16524;SDS011;8375;33.594;-117.718;2023-04-03T02:21:36;7.10;;;2.10;;
16524;SDS011;8375;33.594;-117.718;2023-04-03T02:24:06;6.73;;;2.00;;
16524;SDS011;8375;33.594;-117.718;2023-04-03T02:26:35;7.27;;;1.77;;
16524;SDS011;8375;33.594;-117.718;2023-04-03T02:29:04;4.80;;;1.70;;
16524;SDS011;8375;33.594;-117.718;2023-04-03T02:31:32;9.77;;;2.03;;
16524;SDS011;8375;33.594;-117.718;2023-04-03T02:34:01;6.97;;;2.10;;
16524;SDS011;8375;33.594;-117.718;2023-04-03T02:36:30;7.30;;;1.60;;
16524;SDS011;8375;33.594;-117.718;2023-04-03T02:38:58;7.03;;;1.60;;
16524;SDS011;8375;33.594;-117.718;2023-04-03T02:41:31;9.97;;;2.00;;
16524;SDS011;8375;33.594;-117.718;2023-04-03T02:44:02;7.30;;;1.87;;
16524;SDS011;8375;33.594;-117.718;2023-04-03T02:46:31;8.00;;;1.90;;
16524;SDS011;8375;33.594;-117.718;2023-04-03T02:49:00;8.90;;;1.80;;
16524;SDS011;8375;33.594;-117.718;2023-04-03T02:51:29;8.83;;;1.80;;
16524;SDS011;8375;33.594;-117.718;2023-04-03T02:53:58;7.60;;;1.90;;
16524;SDS011;8375;33.594;-117.718;2023-04-03T02:56:27;7.60;;;1.93;;
16524;SDS011;8375;33.594;-117.718;2023-04-03T02:58:57;7.93;;;2.00;;
16524;SDS011;8375;33.594;-117.718;2023-04-03T03:01:26;8.30;;;2.13;;
16524;SDS011;8375;33.594;-117.718;2023-04-03T03:03:57;8.93;;;1.97;;
16524;SDS011;8375;33.594;-117.718;2023-04-03T03:06:26;7.13;;;1.83;;
16524;SDS011;8375;33.594;-117.718;2023-04-03T03:08:55;7.40;;;2.30;;
16524;SDS011;8375;33.594;-117.718;2023-04-03T03:11:24;9.97;;;2.13;;
16524;SDS011;8375;33.594;-117.718;2023-04-03T03:13:52;11.93;;;1.83;;
16524;SDS011;8375;33.594;-117.718;2023-04-03T03:16:23;5.43;;;1.83;;
16524;SDS011;8375;33.594;-117.718;2023-04-03T03:18:52;10.07;;;2.17;;
16524;SDS011;8375;33.594;-117.718;2023-04-03T03:21:21;11.80;;;2.50;;
16524;SDS011;8375;33.594;-117.718;2023-04-03T03:23:50;11.53;;;2.30;;
16524;SDS011;8375;33.594;-117.718;2023-04-03T03:26:21;7.57;;;1.87;;
16524;SDS011;8375;33.594;-117.718;2023-04-03T03:28:50;7.20;;;2.00;;
16524;SDS011;8375;33.594;-117.718;2023-04-03T03:31:19;6.03;;;1.60;;
16524;SDS011;8375;33.594;-117.718;2023-04-03T03:33:50;5.73;;;1.83;;
16524;SDS011;8375;33.594;-117.718;2023-04-03T03:36:18;6.27;;;1.63;;
16524;SDS011;8375;33.594;-117.718;2023-04-03T03:38:50;12.73;;;2.50;;
16524;SDS011;8375;33.594;-117.718;2023-04-03T03:41:23;8.23;;;1.87;;
16524;SDS011;8375;33.594;-117.718;2023-04-03T03:43:52;7.63;;;2.10;;
16524;SDS011;8375;33.594;-117.718;2023-04-03T03:46:26;7.37;;;1.77;;
16524;SDS011;8375;33.594;-117.718;2023-04-03T03:48:57;11.63;;;2.00;;
16524;SDS011;8375;33.594;-117.718;2023-04-03T03:51:26;8.93;;;2.50;;
16524;SDS011;8375;33.594;-117.718;2023-04-03T03:53:55;7.53;;;1.93;;
16524;SDS011;8375;33.594;-117.718;2023-04-03T03:56:23;6.57;;;2.10;;
16524;SDS011;8375;33.594;-117.718;2023-04-03T03:58:52;11.87;;;2.70;;
16524;SDS011;8375;33.594;-117.718;2023-04-03T04:01:21;9.60;;;1.57;;
16524;SDS011;8375;33.594;-117.718;2023-04-03T04:03:50;10.30;;;2.23;;
16524;SDS011;8375;33.594;-117.718;2023-04-03T04:06:22;10.60;;;2.23;;
16524;SDS011;8375;33.594;-117.718;2023-04-03T04:08:51;10.97;;;1.93;;
16524;SDS011;8375;33.594;-117.718;2023-04-03T04:11:19;10.87;;;1.90;;
16524;SDS011;8375;33.594;-117.718;2023-04-03T04:13:48;8.67;;;1.67;;
16524;SDS011;8375;33.594;-117.718;2023-04-03T04:16:17;6.70;;;1.97;;
16524;SDS011;8375;33.594;-117.718;2023-04-03T04:18:46;8.27;;;1.93;;
16524;SDS011;8375;33.594;-117.718;2023-04-03T04:21:15;12.30;;;2.33;;
16524;SDS011;8375;33.594;-117.718;2023-04-03T04:23:45;12.10;;;2.13;;
16524;SDS011;8375;33.594;-117.718;2023-04-03T04:26:14;11.63;;;2.13;;
16524;SDS011;8375;33.594;-117.718;2023-04-03T04:28:43;12.37;;;2.57;;
16524;SDS011;8375;33.594;-117.718;2023-04-03T04:31:12;8.53;;;2.50;;
16524;SDS011;8375;33.594;-117.718;2023-04-03T04:33:40;10.03;;;2.13;;
16524;SDS011;8375;33.594;-117.718;2023-04-03T04:36:09;9.53;;;2.03;;
16524;SDS011;8375;33.594;-117.718;2023-04-03T04:38:38;8.23;;;1.90;;
16524;SDS011;8375;33.594;-117.718;2023-04-03T04:41:08;9.27;;;1.80;;
16524;SDS011;8375;33.594;-117.718;2023-04-03T04:43:37;9.03;;;1.90;;
16524;SDS011;8375;33.594;-117.718;2023-04-03T04:46:07;6.00;;;1.43;;
16524;SDS011;8375;33.594;-117.718;2023-04-03T04:48:37;8.67;;;2.10;;
16524;SDS011;8375;33.594;-117.718;2023-04-03T04:51:06;7.37;;;1.63;;
16524;SDS011;8375;33.594;-117.718;2023-04-03T04:53:35;8.53;;;2.17;;
16524;SDS011;8375;33.594;-117.718;2023-04-03T04:56:04;7.43;;;1.70;;
16524;SDS011;8375;33.594;-117.718;2023-04-03T04:58:35;5.83;;;2.17;;
16524;SDS011;8375;33.594;-117.718;2023-04-03T05:01:04;10.33;;;2.17;;
16524;SDS011;8375;33.594;-117.718;2023-04-03T05:03:34;10.03;;;2.13;;
16524;SDS011;8375;33.594;-117.718;2023-04-03T05:06:03;11.97;;;1.80;;
16524;SDS011;8375;33.594;-117.718;2023-04-03T05:08:32;6.50;;;1.67;;
16524;SDS011;8375;33.594;-117.718;2023-04-03T05:11:01;5.90;;;1.67;;
16524;SDS011;8375;33.594;-117.718;2023-04-03T05:13:30;9.33;;;2.03;;
16524;SDS011;8375;33.594;-117.718;2023-04-03T05:16:01;9.57;;;2.43;;
16524;SDS011;8375;33.594;-117.718;2023-04-03T05:18:30;7.30;;;1.47;;
16524;SDS011;8375;33.594;-117.718;2023-04-03T05:20:58;9.10;;;1.57;;
16524;SDS011;8375;33.594;-117.718;2023-04-03T05:23:27;9.23;;;2.20;;
16524;SDS011;8375;33.594;-117.718;2023-04-03T05:25:56;9.43;;;2.00;;
16524;SDS011;8375;33.594;-117.718;2023-04-03T05:28:24;14.17;;;2.90;;
16524;SDS011;8375;33.594;-117.718;2023-04-03T05:30:53;8.13;;;1.73;;
16524;SDS011;8375;33.594;-117.718;2023-04-03T05:33:25;9.40;;;2.00;;
16524;SDS011;8375;33.594;-117.718;2023-04-03T05:35:54;7.93;;;1.73;;
16524;SDS011;8375;33.594;-117.718;2023-04-03T05:38:22;9.10;;;1.90;;
16524;SDS011;8375;33.594;-117.718;2023-04-03T05:40:51;4.70;;;1.70;;
16524;SDS011;8375;33.594;-117.718;2023-04-03T05:43:20;10.03;;;1.70;;
16524;SDS011;8375;33.594;-117.718;2023-04-03T05:45:49;8.20;;;1.90;;
16524;SDS011;8375;33.594;-117.718;2023-04-03T05:48:18;10.20;;;2.03;;
16524;SDS011;8375;33.594;-117.718;2023-04-03T05:50:48;8.77;;;2.13;;
16524;SDS011;8375;33.594;-117.718;2023-04-03T05:53:17;6.73;;;1.70;;
16524;SDS011;8375;33.594;-117.718;2023-04-03T05:55:49;12.30;;;2.23;;
16524;SDS011;8375;33.594;-117.718;2023-04-03T05:58:18;11.03;;;2.10;;
16524;SDS011;8375;33.594;-117.718;2023-04-03T06:00:46;4.77;;;1.27;;
16524;SDS011;8375;33.594;-117.718;2023-04-03T06:03:15;10.50;;;1.80;;
16524;SDS011;8375;33.594;-117.718;2023-04-03T06:05:44;10.10;;;2.07;;
16524;SDS011;8375;33.594;-117.718;2023-04-03T06:08:15;10.10;;;2.10;;
16524;SDS011;8375;33.594;-117.718;2023-04-03T06:10:44;6.93;;;1.70;;
16524;SDS011;8375;33.594;-117.718;2023-04-03T06:13:13;7.13;;;1.57;;
16524;SDS011;8375;33.594;-117.718;2023-04-03T06:15:42;10.10;;;1.83;;
16524;SDS011;8375;33.594;-117.718;2023-04-03T06:18:12;7.63;;;1.80;;
16524;SDS011;8375;33.594;-117.718;2023-04-03T06:20:40;7.77;;;1.90;;
16524;SDS011;8375;33.594;-117.718;2023-04-03T06:23:09;6.73;;;2.27;;
16524;SDS011;8375;33.594;-117.718;2023-04-03T06:25:40;10.07;;;2.07;;
16524;SDS011;8375;33.594;-117.718;2023-04-03T06:28:10;8.03;;;2.10;;
16524;SDS011;8375;33.594;-117.718;2023-04-03T06:30:39;7.67;;;2.83;;
16524;SDS011;8375;33.594;-117.718;2023-04-03T06:33:07;7.10;;;2.17;;
16524;SDS011;8375;33.594;-117.718;2023-04-03T06:35:36;9.77;;;2.10;;
16524;SDS011;8375;33.594;-117.718;2023-04-03T06:38:06;7.13;;;2.00;;
16524;SDS011;8375;33.594;-117.718;2023-04-03T06:40:35;8.43;;;2.00;;
16524;SDS011;8375;33.594;-117.718;2023-04-03T06:43:06;11.20;;;2.87;;
16524;SDS011;8375;33.594;-117.718;2023-04-03T06:45:35;10.07;;;2.20;;
16524;SDS011;8375;33.594;-117.718;2023-04-03T06:48:04;5.97;;;1.90;;
16524;SDS011;8375;33.594;-117.718;2023-04-03T06:50:33;6.83;;;2.53;;
16524;SDS011;8375;33.594;-117.718;2023-04-03T06:53:01;10.17;;;2.53;;
16524;SDS011;8375;33.594;-117.718;2023-04-03T06:55:31;6.03;;;2.17;;
16524;SDS011;8375;33.594;-117.718;2023-04-03T06:58:00;9.07;;;2.70;;
16524;SDS011;8375;33.594;-117.718;2023-04-03T07:00:30;9.53;;;2.03;;
16524;SDS011;8375;33.594;-117.718;2023-04-03T07:02:59;8.20;;;2.53;;
16524;SDS011;8375;33.594;-117.718;2023-04-03T07:05:28;9.30;;;2.37;;
16524;SDS011;8375;33.594;-117.718;2023-04-03T07:07:56;8.73;;;2.53;;
16524;SDS011;8375;33.594;-117.718;2023-04-03T07:10:25;9.97;;;2.40;;
16524;SDS011;8375;33.594;-117.718;2023-04-03T07:12:54;10.87;;;2.93;;
16524;SDS011;8375;33.594;-117.718;2023-04-03T07:15:23;7.80;;;2.30;;
16524;SDS011;8375;33.594;-117.718;2023-04-03T07:17:54;7.93;;;2.60;;
16524;SDS011;8375;33.594;-117.718;2023-04-03T07:20:22;7.13;;;2.57;;
16524;SDS011;8375;33.594;-117.718;2023-04-03T07:22:51;6.57;;;2.03;;
16524;SDS011;8375;33.594;-117.718;2023-04-03T07:25:20;7.83;;;2.43;;
16524;SDS011;8375;33.594;-117.718;2023-04-03T07:27:49;8.23;;;2.70;;
16524;SDS011;8375;33.594;-117.718;2023-04-03T07:30:17;7.93;;;2.20;;
16524;SDS011;8375;33.594;-117.718;2023-04-03T07:32:46;10.77;;;2.90;;
16524;SDS011;8375;33.594;-117.718;2023-04-03T07:35:16;9.93;;;2.57;;
16524;SDS011;8375;33.594;-117.718;2023-04-03T07:37:45;9.07;;;2.63;;
16524;SDS011;8375;33.594;-117.718;2023-04-03T07:40:14;9.03;;;2.73;;
16524;SDS011;8375;33.594;-117.718;2023-04-03T07:42:43;12.00;;;2.83;;
16524;SDS011;8375;33.594;-117.718;2023-04-03T07:45:11;9.73;;;2.67;;
16524;SDS011;8375;33.594;-117.718;2023-04-03T07:47:40;11.30;;;3.17;;
16524;SDS011;8375;33.594;-117.718;2023-04-03T07:50:09;7.73;;;2.73;;
16524;SDS011;8375;33.594;-117.718;2023-04-03T07:52:39;8.90;;;2.80;;
16524;SDS011;8375;33.594;-117.718;2023-04-03T07:55:08;11.50;;;2.97;;
16524;SDS011;8375;33.594;-117.718;2023-04-03T07:57:37;7.27;;;2.43;;
16524;SDS011;8375;33.594;-117.718;2023-04-03T08:00:06;13.00;;;3.13;;
16524;SDS011;8375;33.594;-117.718;2023-04-03T08:02:36;9.90;;;3.27;;
16524;SDS011;8375;33.594;-117.718;2023-04-03T08:05:05;8.00;;;2.33;;
16524;SDS011;8375;33.594;-117.718;2023-04-03T08:07:34;11.03;;;3.33;;
16524;SDS011;8375;33.594;-117.718;2023-04-03T08:10:07;10.80;;;3.10;;
16524;SDS011;8375;33.594;-117.718;2023-04-03T08:12:36;8.23;;;2.80;;
16524;SDS011;8375;33.594;-117.718;2023-04-03T08:15:05;9.73;;;2.73;;
16524;SDS011;8375;33.594;-117.718;2023-04-03T08:17:34;11.50;;;3.53;;
16524;SDS011;8375;33.594;-117.718;2023-04-03T08:20:03;9.20;;;3.23;;
16524;SDS011;8375;33.594;-117.718;2023-04-03T08:22:32;8.10;;;3.13;;
16524;SDS011;8375;33.594;-117.718;2023-04-03T08:25:01;8.20;;;3.20;;
16524;SDS011;8375;33.594;-117.718;2023-04-03T08:27:31;10.33;;;3.37;;
16524;SDS011;8375;33.594;-117.718;2023-04-03T08:30:00;7.97;;;2.83;;
16524;SDS011;8375;33.594;-117.718;2023-04-03T08:32:29;10.60;;;3.00;;
16524;SDS011;8375;33.594;-117.718;2023-04-03T08:34:58;13.20;;;3.40;;
16524;SDS011;8375;33.594;-117.718;2023-04-03T08:37:27;7.03;;;2.93;;
16524;SDS011;8375;33.594;-117.718;2023-04-03T08:39:56;10.67;;;3.50;;
16524;SDS011;8375;33.594;-117.718;2023-04-03T08:42:30;9.67;;;3.30;;
16524;SDS011;8375;33.594;-117.718;2023-04-03T08:45:10;11.80;;;3.13;;
16524;SDS011;8375;33.594;-117.718;2023-04-03T08:47:43;10.17;;;3.87;;
16524;SDS011;8375;33.594;-117.718;2023-04-03T08:50:16;9.70;;;2.73;;
16524;SDS011;8375;33.594;-117.718;2023-04-03T08:52:47;11.27;;;2.93;;
16524;SDS011;8375;33.594;-117.718;2023-04-03T08:55:22;9.97;;;2.57;;
16524;SDS011;8375;33.594;-117.718;2023-04-03T08:57:57;12.83;;;2.50;;
16524;SDS011;8375;33.594;-117.718;2023-04-03T09:00:29;9.13;;;2.63;;
16524;SDS011;8375;33.594;-117.718;2023-04-03T09:03:02;15.90;;;3.13;;
16524;SDS011;8375;33.594;-117.718;2023-04-03T09:05:34;11.57;;;2.67;;
16524;SDS011;8375;33.594;-117.718;2023-04-03T09:08:13;14.87;;;3.10;;
16524;SDS011;8375;33.594;-117.718;2023-04-03T09:10:52;17.83;;;2.70;;
16524;SDS011;8375;33.594;-117.718;2023-04-03T09:13:31;16.80;;;3.10;;
16524;SDS011;8375;33.594;-117.718;2023-04-03T09:16:12;12.10;;;2.23;;
16524;SDS011;8375;33.594;-117.718;2023-04-03T09:18:50;17.80;;;2.90;;
16524;SDS011;8375;33.594;-117.718;2023-04-03T09:21:27;16.77;;;3.23;;
16524;SDS011;8375;33.594;-117.718;2023-04-03T09:24:02;12.03;;;3.37;;
16524;SDS011;8375;33.594;-117.718;2023-04-03T09:26:34;14.37;;;3.07;;
16524;SDS011;8375;33.594;-117.718;2023-04-03T09:29:12;12.37;;;2.67;;
16524;SDS011;8375;33.594;-117.718;2023-04-03T09:31:46;18.73;;;3.30;;
16524;SDS011;8375;33.594;-117.718;2023-04-03T09:34:17;11.13;;;2.67;;
16524;SDS011;8375;33.594;-117.718;2023-04-03T09:36:53;15.53;;;2.57;;
16524;SDS011;8375;33.594;-117.718;2023-04-03T09:39:24;16.97;;;2.80;;
16524;SDS011;8375;33.594;-117.718;2023-04-03T09:42:00;10.77;;;3.40;;
16524;SDS011;8375;33.594;-117.718;2023-04-03T09:44:33;15.13;;;2.70;;
16524;SDS011;8375;33.594;-117.718;2023-04-03T09:47:16;16.07;;;2.80;;
16524;SDS011;8375;33.594;-117.718;2023-04-03T09:49:46;16.63;;;3.17;;
16524;SDS011;8375;33.594;-117.718;2023-04-03T09:52:18;16.17;;;2.97;;
16524;SDS011;8375;33.594;-117.718;2023-04-03T09:54:48;13.13;;;2.63;;
16524;SDS011;8375;33.594;-117.718;2023-04-03T09:57:16;13.47;;;2.70;;
16524;SDS011;8375;33.594;-117.718;2023-04-03T09:59:56;14.80;;;2.67;;
16524;SDS011;8375;33.594;-117.718;2023-04-03T10:02:33;13.13;;;3.10;;
16524;SDS011;8375;33.594;-117.718;2023-04-03T10:05:04;14.47;;;3.43;;
16524;SDS011;8375;33.594;-117.718;2023-04-03T10:07:53;15.20;;;2.63;;
16524;SDS011;8375;33.594;-117.718;2023-04-03T10:10:36;15.67;;;2.87;;
16524;SDS011;8375;33.594;-117.718;2023-04-03T10:13:06;12.70;;;2.80;;
16524;SDS011;8375;33.594;-117.718;2023-04-03T10:15:41;15.13;;;2.70;;
16524;SDS011;8375;33.594;-117.718;2023-04-03T10:18:17;14.07;;;3.00;;
16524;SDS011;8375;33.594;-117.718;2023-04-03T10:20:57;14.40;;;2.90;;
16524;SDS011;8375;33.594;-117.718;2023-04-03T10:23:36;13.63;;;2.93;;
16524;SDS011;8375;33.594;-117.718;2023-04-03T10:26:11;14.77;;;3.10;;
16524;SDS011;8375;33.594;-117.718;2023-04-03T10:28:52;16.87;;;3.13;;
16524;SDS011;8375;33.594;-117.718;2023-04-03T10:31:33;11.87;;;3.20;;
16524;SDS011;8375;33.594;-117.718;2023-04-03T10:34:06;15.73;;;2.73;;
16524;SDS011;8375;33.594;-117.718;2023-04-03T10:36:46;15.20;;;2.90;;
16524;SDS011;8375;33.594;-117.718;2023-04-03T10:39:24;13.20;;;2.57;;
16524;SDS011;8375;33.594;-117.718;2023-04-03T10:42:02;17.37;;;3.03;;
16524;SDS011;8375;33.594;-117.718;2023-04-03T10:44:37;13.37;;;2.90;;
16524;SDS011;8375;33.594;-117.718;2023-04-03T10:47:20;15.27;;;3.00;;
16524;SDS011;8375;33.594;-117.718;2023-04-03T10:49:55;11.70;;;2.83;;
16524;SDS011;8375;33.594;-117.718;2023-04-03T10:52:30;21.03;;;4.40;;
16524;SDS011;8375;33.594;-117.718;2023-04-03T10:55:10;12.73;;;2.70;;
16524;SDS011;8375;33.594;-117.718;2023-04-03T10:57:51;13.37;;;2.87;;
16524;SDS011;8375;33.594;-117.718;2023-04-03T11:00:26;15.83;;;2.83;;
16524;SDS011;8375;33.594;-117.718;2023-04-03T11:03:05;14.33;;;3.07;;
16524;SDS011;8375;33.594;-117.718;2023-04-03T11:05:40;12.83;;;3.27;;
16524;SDS011;8375;33.594;-117.718;2023-04-03T11:08:13;15.00;;;3.13;;
16524;SDS011;8375;33.594;-117.718;2023-04-03T11:10:52;9.97;;;2.67;;
16524;SDS011;8375;33.594;-117.718;2023-04-03T11:13:26;17.83;;;3.53;;
16524;SDS011;8375;33.594;-117.718;2023-04-03T11:16:01;12.77;;;2.53;;
16524;SDS011;8375;33.594;-117.718;2023-04-03T11:18:35;14.43;;;2.70;;
16524;SDS011;8375;33.594;-117.718;2023-04-03T11:21:12;13.07;;;2.70;;
16524;SDS011;8375;33.594;-117.718;2023-04-03T11:23:47;10.50;;;2.90;;
16524;SDS011;8375;33.594;-117.718;2023-04-03T11:26:18;10.17;;;2.40;;
16524;SDS011;8375;33.594;-117.718;2023-04-03T11:28:52;19.03;;;2.87;;
16524;SDS011;8375;33.594;-117.718;2023-04-03T11:31:33;15.67;;;2.63;;
16524;SDS011;8375;33.594;-117.718;2023-04-03T11:34:17;15.60;;;3.17;;
16524;SDS011;8375;33.594;-117.718;2023-04-03T11:36:53;16.20;;;2.60;;
16524;SDS011;8375;33.594;-117.718;2023-04-03T11:39:27;11.83;;;2.87;;
16524;SDS011;8375;33.594;-117.718;2023-04-03T11:42:13;13.27;;;2.60;;
16524;SDS011;8375;33.594;-117.718;2023-04-03T11:44:44;11.10;;;2.90;;
16524;SDS011;8375;33.594;-117.718;2023-04-03T11:47:12;14.30;;;2.67;;
16524;SDS011;8375;33.594;-117.718;2023-04-03T11:53:29;8.67;;;2.10;;
16524;SDS011;8375;33.594;-117.718;2023-04-03T12:01:49;13.33;;;3.00;;
16524;SDS011;8375;33.594;-117.718;2023-04-03T12:04:19;14.03;;;2.53;;
16524;SDS011;8375;33.594;-117.718;2023-04-03T12:06:52;12.63;;;2.87;;
16524;SDS011;8375;33.594;-117.718;2023-04-03T12:12:58;17.87;;;2.90;;
16524;SDS011;8375;33.594;-117.718;2023-04-03T12:24:35;16.07;;;2.90;;
16524;SDS011;8375;33.594;-117.718;2023-04-03T12:27:13;16.23;;;3.60;;
16524;SDS011;8375;33.594;-117.718;2023-04-03T12:32:53;13.37;;;3.03;;
16524;SDS011;8375;33.594;-117.718;2023-04-03T12:35:39;11.93;;;2.67;;
16524;SDS011;8375;33.594;-117.718;2023-04-03T12:38:33;15.70;;;3.40;;
16524;SDS011;8375;33.594;-117.718;2023-04-03T12:41:21;9.50;;;1.90;;
16524;SDS011;8375;33.594;-117.718;2023-04-03T12:44:05;13.47;;;2.67;;
16524;SDS011;8375;33.594;-117.718;2023-04-03T12:46:52;15.27;;;2.57;;
16524;SDS011;8375;33.594;-117.718;2023-04-03T12:49:26;13.77;;;2.73;;
16524;SDS011;8375;33.594;-117.718;2023-04-03T12:52:03;13.17;;;2.67;;
16524;SDS011;8375;33.594;-117.718;2023-04-03T12:54:46;15.20;;;2.50;;
16524;SDS011;8375;33.594;-117.718;2023-04-03T12:57:17;11.97;;;2.40;;
16524;SDS011;8375;33.594;-117.718;2023-04-03T12:59:47;11.90;;;3.07;;
16524;SDS011;8375;33.594;-117.718;2023-04-03T13:02:26;7.13;;;2.50;;
16524;SDS011;8375;33.594;-117.718;2023-04-03T13:04:56;9.03;;;2.67;;
16524;SDS011;8375;33.594;-117.718;2023-04-03T13:07:27;10.43;;;2.50;;
16524;SDS011;8375;33.594;-117.718;2023-04-03T13:10:02;12.07;;;2.50;;
16524;SDS011;8375;33.594;-117.718;2023-04-03T13:12:48;13.07;;;3.00;;
16524;SDS011;8375;33.594;-117.718;2023-04-03T13:15:20;10.20;;;2.23;;
16524;SDS011;8375;33.594;-117.718;2023-04-03T13:17:50;12.37;;;2.67;;
16524;SDS011;8375;33.594;-117.718;2023-04-03T13:20:21;12.27;;;2.30;;
16524;SDS011;8375;33.594;-117.718;2023-04-03T13:22:56;9.70;;;2.17;;
16524;SDS011;8375;33.594;-117.718;2023-04-03T13:25:29;11.83;;;2.43;;
16524;SDS011;8375;33.594;-117.718;2023-04-03T13:28:00;8.20;;;2.30;;
16524;SDS011;8375;33.594;-117.718;2023-04-03T13:30:33;11.23;;;2.27;;
16524;SDS011;8375;33.594;-117.718;2023-04-03T13:33:04;13.87;;;2.77;;
16524;SDS011;8375;33.594;-117.718;2023-04-03T13:35:46;13.03;;;2.60;;
16524;SDS011;8375;33.594;-117.718;2023-04-03T13:38:25;10.17;;;2.53;;
16524;SDS011;8375;33.594;-117.718;2023-04-03T13:40:58;14.33;;;2.63;;
16524;SDS011;8375;33.594;-117.718;2023-04-03T13:43:30;8.50;;;1.70;;
16524;SDS011;8375;33.594;-117.718;2023-04-03T13:46:02;9.90;;;2.63;;
16524;SDS011;8375;33.594;-117.718;2023-04-03T13:48:38;12.43;;;2.50;;
16524;SDS011;8375;33.594;-117.718;2023-04-03T13:51:17;12.47;;;2.50;;
16524;SDS011;8375;33.594;-117.718;2023-04-03T13:53:49;15.93;;;2.80;;
16524;SDS011;8375;33.594;-117.718;2023-04-03T13:56:30;12.07;;;2.50;;
16524;SDS011;8375;33.594;-117.718;2023-04-03T13:59:06;7.63;;;2.00;;
16524;SDS011;8375;33.594;-117.718;2023-04-03T14:01:52;7.03;;;2.00;;
16524;SDS011;8375;33.594;-117.718;2023-04-03T14:04:23;14.57;;;2.70;;
16524;SDS011;8375;33.594;-117.718;2023-04-03T14:06:53;10.20;;;2.10;;
16524;SDS011;8375;33.594;-117.718;2023-04-03T14:09:23;10.67;;;2.07;;
16524;SDS011;8375;33.594;-117.718;2023-04-03T14:11:55;11.30;;;2.80;;
16524;SDS011;8375;33.594;-117.718;2023-04-03T14:14:30;10.97;;;2.40;;
16524;SDS011;8375;33.594;-117.718;2023-04-03T14:17:05;10.57;;;2.17;;
16524;SDS011;8375;33.594;-117.718;2023-04-03T14:19:41;12.83;;;2.37;;
16524;SDS011;8375;33.594;-117.718;2023-04-03T14:22:13;10.37;;;2.23;;
16524;SDS011;8375;33.594;-117.718;2023-04-03T14:24:44;8.67;;;2.07;;
16524;SDS011;8375;33.594;-117.718;2023-04-03T14:27:17;13.70;;;2.33;;
16524;SDS011;8375;33.594;-117.718;2023-04-03T14:29:49;15.80;;;2.83;;
16524;SDS011;8375;33.594;-117.718;2023-04-03T14:32:20;11.63;;;2.20;;
16524;SDS011;8375;33.594;-117.718;2023-04-03T14:34:50;11.00;;;2.70;;
16524;SDS011;8375;33.594;-117.718;2023-04-03T14:37:20;14.17;;;2.43;;
16524;SDS011;8375;33.594;-117.718;2023-04-03T14:39:50;11.47;;;2.27;;
16524;SDS011;8375;33.594;-117.718;2023-04-03T14:42:22;13.80;;;2.57;;
16524;SDS011;8375;33.594;-117.718;2023-04-03T14:44:53;14.03;;;2.50;;
16524;SDS011;8375;33.594;-117.718;2023-04-03T14:47:22;10.30;;;2.80;;
16524;SDS011;8375;33.594;-117.718;2023-04-03T14:49:54;11.27;;;2.40;;
16524;SDS011;8375;33.594;-117.718;2023-04-03T14:52:23;10.60;;;2.57;;
16524;SDS011;8375;33.594;-117.718;2023-04-03T14:54:53;13.70;;;2.30;;
16524;SDS011;8375;33.594;-117.718;2023-04-03T14:57:25;9.80;;;2.50;;
16524;SDS011;8375;33.594;-117.718;2023-04-03T14:59:55;15.00;;;2.87;;
16524;SDS011;8375;33.594;-117.718;2023-04-03T15:02:28;10.80;;;2.17;;
16524;SDS011;8375;33.594;-117.718;2023-04-03T15:04:57;11.53;;;2.80;;
16524;SDS011;8375;33.594;-117.718;2023-04-03T15:07:29;9.80;;;2.30;;
16524;SDS011;8375;33.594;-117.718;2023-04-03T15:10:00;10.27;;;2.60;;
16524;SDS011;8375;33.594;-117.718;2023-04-03T15:12:32;12.50;;;2.90;;